Alpine, Tennessee
Current Conditions -  °F | °C
As of 9:15 PM on Friday 28 Nov 2014 (Local Time) from KSRB Reporting Station
Clear Clear  
Wind Chill: 31°   Ceiling: Unl
Heat Index: 37°   Visibility: 10mi
Dew Point: 19°   Wind: 9mph
Humidity: 48%   Direction: 170°S
Pressure: 30.16"   Gusts: NA
Location:  36.39°N, 85.22°W
Report Text: KSRB 290315Z AUTO 17008KT 10SM CLR 03/M07 A3016 RMK
Loading
Personal Weather Stations






























Interactive Weather Map New forecast layout! Learn more

10-Day Weather Forecast

Advertisements
Track Severe Weather on mobile